sensor_id;sensor_type;location;lat;lon;timestamp;temperature;humidity
49132;DHT22;35149;51.196;6.204;2022-10-16T00:01:27;16.40;80.60
49132;DHT22;35149;51.196;6.204;2022-10-16T00:03:55;16.50;80.50
49132;DHT22;35149;51.196;6.204;2022-10-16T00:06:26;16.50;80.40
49132;DHT22;35149;51.196;6.204;2022-10-16T00:08:58;16.40;80.40
49132;DHT22;35149;51.196;6.204;2022-10-16T00:11:33;16.50;80.30
49132;DHT22;35149;51.196;6.204;2022-10-16T00:14:06;16.40;80.20
49132;DHT22;35149;51.196;6.204;2022-10-16T00:16:34;16.40;80.30
49132;DHT22;35149;51.196;6.204;2022-10-16T00:19:02;16.40;80.40
49132;DHT22;35149;51.196;6.204;2022-10-16T00:21:30;16.40;80.40
49132;DHT22;35149;51.196;6.204;2022-10-16T00:24:02;16.40;80.50
49132;DHT22;35149;51.196;6.204;2022-10-16T00:26:33;16.40;80.50
49132;DHT22;35149;51.196;6.204;2022-10-16T00:29:03;16.40;80.60
49132;DHT22;35149;51.196;6.204;2022-10-16T00:31:30;16.40;80.40
49132;DHT22;35149;51.196;6.204;2022-10-16T00:33:59;16.40;80.50
49132;DHT22;35149;51.196;6.204;2022-10-16T00:36:29;16.40;80.50
49132;DHT22;35149;51.196;6.204;2022-10-16T00:38:57;16.50;80.70
49132;DHT22;35149;51.196;6.204;2022-10-16T00:41:27;16.40;80.20
49132;DHT22;35149;51.196;6.204;2022-10-16T00:43:59;16.40;80.10
49132;DHT22;35149;51.196;6.204;2022-10-16T00:46:35;16.40;80.20
49132;DHT22;35149;51.196;6.204;2022-10-16T00:49:04;16.40;80.20
49132;DHT22;35149;51.196;6.204;2022-10-16T00:51:37;16.40;80.30
49132;DHT22;35149;51.196;6.204;2022-10-16T00:56:46;16.30;80.30
49132;DHT22;35149;51.196;6.204;2022-10-16T00:59:18;16.30;80.10
49132;DHT22;35149;51.196;6.204;2022-10-16T01:01:45;16.30;80.10
49132;DHT22;35149;51.196;6.204;2022-10-16T01:04:12;16.30;80.00
49132;DHT22;35149;51.196;6.204;2022-10-16T01:09:42;16.30;80.20
49132;DHT22;35149;51.196;6.204;2022-10-16T01:15:23;16.20;80.20
49132;DHT22;35149;51.196;6.204;2022-10-16T01:18:54;16.30;80.40
49132;DHT22;35149;51.196;6.204;2022-10-16T01:21:08;16.20;80.10
49132;DHT22;35149;51.196;6.204;2022-10-16T01:27:09;16.20;80.00
49132;DHT22;35149;51.196;6.204;2022-10-16T01:29:41;16.20;79.80
49132;DHT22;35149;51.196;6.204;2022-10-16T01:34:52;16.10;80.00
49132;DHT22;35149;51.196;6.204;2022-10-16T01:37:59;16.10;80.10
49132;DHT22;35149;51.196;6.204;2022-10-16T01:40:29;16.10;80.10
49132;DHT22;35149;51.196;6.204;2022-10-16T01:43:17;16.10;80.10
49132;DHT22;35149;51.196;6.204;2022-10-16T01:45:48;16.10;80.10
49132;DHT22;35149;51.196;6.204;2022-10-16T01:48:19;16.10;80.00
49132;DHT22;35149;51.196;6.204;2022-10-16T01:51:14;16.10;79.80
49132;DHT22;35149;51.196;6.204;2022-10-16T01:53:48;16.10;79.80
49132;DHT22;35149;51.196;6.204;2022-10-16T01:56:16;16.10;79.60
49132;DHT22;35149;51.196;6.204;2022-10-16T01:58:55;16.10;79.60
49132;DHT22;35149;51.196;6.204;2022-10-16T02:01:27;16.00;79.50
49132;DHT22;35149;51.196;6.204;2022-10-16T02:03:56;16.00;79.50
49132;DHT22;35149;51.196;6.204;2022-10-16T02:06:28;16.10;79.70
49132;DHT22;35149;51.196;6.204;2022-10-16T02:08:56;16.10;79.50
49132;DHT22;35149;51.196;6.204;2022-10-16T02:11:24;16.00;79.10
49132;DHT22;35149;51.196;6.204;2022-10-16T02:13:55;16.00;79.30
49132;DHT22;35149;51.196;6.204;2022-10-16T02:16:40;16.00;79.50
49132;DHT22;35149;51.196;6.204;2022-10-16T02:19:14;16.00;79.90
49132;DHT22;35149;51.196;6.204;2022-10-16T02:21:51;15.90;79.80
49132;DHT22;35149;51.196;6.204;2022-10-16T02:24:43;15.90;79.80
49132;DHT22;35149;51.196;6.204;2022-10-16T02:30:10;16.00;79.80
49132;DHT22;35149;51.196;6.204;2022-10-16T02:32:42;16.00;79.90
49132;DHT22;35149;51.196;6.204;2022-10-16T02:35:10;16.00;79.80
49132;DHT22;35149;51.196;6.204;2022-10-16T02:37:38;16.00;79.70
49132;DHT22;35149;51.196;6.204;2022-10-16T02:40:07;16.00;79.70
49132;DHT22;35149;51.196;6.204;2022-10-16T02:42:36;16.00;79.70
49132;DHT22;35149;51.196;6.204;2022-10-16T02:45:07;16.00;79.60
49132;DHT22;35149;51.196;6.204;2022-10-16T02:47:35;16.00;79.60
49132;DHT22;35149;51.196;6.204;2022-10-16T02:50:05;16.00;79.60
49132;DHT22;35149;51.196;6.204;2022-10-16T02:52:34;16.00;79.60
49132;DHT22;35149;51.196;6.204;2022-10-16T02:55:01;16.00;79.60
49132;DHT22;35149;51.196;6.204;2022-10-16T02:57:27;16.00;79.50
49132;DHT22;35149;51.196;6.204;2022-10-16T02:59:54;16.00;79.50
49132;DHT22;35149;51.196;6.204;2022-10-16T03:02:21;16.00;79.60
49132;DHT22;35149;51.196;6.204;2022-10-16T03:04:48;16.00;79.50
49132;DHT22;35149;51.196;6.204;2022-10-16T03:07:15;16.00;79.60
49132;DHT22;35149;51.196;6.204;2022-10-16T03:09:44;16.00;79.50
49132;DHT22;35149;51.196;6.204;2022-10-16T03:12:10;16.00;79.50
49132;DHT22;35149;51.196;6.204;2022-10-16T03:14:38;16.00;79.60
49132;DHT22;35149;51.196;6.204;2022-10-16T03:17:06;16.00;79.50
49132;DHT22;35149;51.196;6.204;2022-10-16T03:19:33;16.00;79.40
49132;DHT22;35149;51.196;6.204;2022-10-16T03:21:59;16.00;80.00
49132;DHT22;35149;51.196;6.204;2022-10-16T03:24:26;16.00;79.40
49132;DHT22;35149;51.196;6.204;2022-10-16T03:26:53;16.00;79.20
49132;DHT22;35149;51.196;6.204;2022-10-16T03:29:19;16.00;79.10
49132;DHT22;35149;51.196;6.204;2022-10-16T03:31:53;16.00;79.00
49132;DHT22;35149;51.196;6.204;2022-10-16T03:34:20;16.00;79.10
49132;DHT22;35149;51.196;6.204;2022-10-16T03:36:47;16.00;79.10
49132;DHT22;35149;51.196;6.204;2022-10-16T03:39:14;16.00;79.10
49132;DHT22;35149;51.196;6.204;2022-10-16T03:41:40;16.00;79.10
49132;DHT22;35149;51.196;6.204;2022-10-16T03:44:09;15.90;79.10
49132;DHT22;35149;51.196;6.204;2022-10-16T03:46:39;15.90;79.20
49132;DHT22;35149;51.196;6.204;2022-10-16T03:49:10;15.90;79.30
49132;DHT22;35149;51.196;6.204;2022-10-16T03:51:37;15.90;79.30
49132;DHT22;35149;51.196;6.204;2022-10-16T03:54:09;15.90;79.30
49132;DHT22;35149;51.196;6.204;2022-10-16T03:56:38;15.90;79.30
49132;DHT22;35149;51.196;6.204;2022-10-16T03:59:05;15.90;79.30
49132;DHT22;35149;51.196;6.204;2022-10-16T04:01:34;15.80;79.20
49132;DHT22;35149;51.196;6.204;2022-10-16T04:04:04;15.80;79.30
49132;DHT22;35149;51.196;6.204;2022-10-16T04:06:33;15.80;79.20
49132;DHT22;35149;51.196;6.204;2022-10-16T04:08:59;15.80;79.20
49132;DHT22;35149;51.196;6.204;2022-10-16T04:11:27;15.80;79.30
49132;DHT22;35149;51.196;6.204;2022-10-16T04:13:54;15.80;79.20
49132;DHT22;35149;51.196;6.204;2022-10-16T04:16:20;15.80;79.20
49132;DHT22;35149;51.196;6.204;2022-10-16T04:18:47;15.70;79.20
49132;DHT22;35149;51.196;6.204;2022-10-16T04:21:19;15.70;79.20
49132;DHT22;35149;51.196;6.204;2022-10-16T04:23:48;15.70;79.20
49132;DHT22;35149;51.196;6.204;2022-10-16T04:26:15;15.70;79.30
49132;DHT22;35149;51.196;6.204;2022-10-16T04:28:44;15.70;79.30
49132;DHT22;35149;51.196;6.204;2022-10-16T04:31:11;15.80;79.40
49132;DHT22;35149;51.196;6.204;2022-10-16T04:33:38;15.60;79.40
49132;DHT22;35149;51.196;6.204;2022-10-16T04:36:04;15.60;79.50
49132;DHT22;35149;51.196;6.204;2022-10-16T04:38:35;15.60;79.60
49132;DHT22;35149;51.196;6.204;2022-10-16T04:41:06;15.60;79.60
49132;DHT22;35149;51.196;6.204;2022-10-16T04:43:34;15.60;80.30
49132;DHT22;35149;51.196;6.204;2022-10-16T04:46:00;15.60;79.70
49132;DHT22;35149;51.196;6.204;2022-10-16T04:48:30;15.60;79.80
49132;DHT22;35149;51.196;6.204;2022-10-16T04:50:57;15.60;80.00
49132;DHT22;35149;51.196;6.204;2022-10-16T04:53:24;15.60;80.10
49132;DHT22;35149;51.196;6.204;2022-10-16T04:55:50;15.60;80.10
49132;DHT22;35149;51.196;6.204;2022-10-16T04:58:17;15.60;80.00
49132;DHT22;35149;51.196;6.204;2022-10-16T05:00:44;15.60;80.10
49132;DHT22;35149;51.196;6.204;2022-10-16T05:03:14;15.60;80.20
49132;DHT22;35149;51.196;6.204;2022-10-16T05:05:45;15.60;80.10
49132;DHT22;35149;51.196;6.204;2022-10-16T05:08:13;15.60;80.00
49132;DHT22;35149;51.196;6.204;2022-10-16T05:10:44;15.60;79.90
49132;DHT22;35149;51.196;6.204;2022-10-16T05:13:16;15.60;80.00
49132;DHT22;35149;51.196;6.204;2022-10-16T05:15:49;15.60;80.00
49132;DHT22;35149;51.196;6.204;2022-10-16T05:18:18;15.60;79.90
49132;DHT22;35149;51.196;6.204;2022-10-16T05:20:47;15.60;79.90
49132;DHT22;35149;51.196;6.204;2022-10-16T05:23:15;15.60;79.90
49132;DHT22;35149;51.196;6.204;2022-10-16T05:25:55;15.60;79.90
49132;DHT22;35149;51.196;6.204;2022-10-16T05:28:25;15.60;79.90
49132;DHT22;35149;51.196;6.204;2022-10-16T05:30:52;15.60;79.80
49132;DHT22;35149;51.196;6.204;2022-10-16T05:33:21;15.60;79.80
49132;DHT22;35149;51.196;6.204;2022-10-16T05:35:48;15.60;79.70
49132;DHT22;35149;51.196;6.204;2022-10-16T05:38:16;15.60;79.70
49132;DHT22;35149;51.196;6.204;2022-10-16T05:40:44;15.60;79.70
49132;DHT22;35149;51.196;6.204;2022-10-16T05:43:16;15.60;79.60
49132;DHT22;35149;51.196;6.204;2022-10-16T05:45:43;15.60;79.60
49132;DHT22;35149;51.196;6.204;2022-10-16T05:48:09;15.60;79.60
49132;DHT22;35149;51.196;6.204;2022-10-16T05:50:36;15.60;79.70
49132;DHT22;35149;51.196;6.204;2022-10-16T05:53:04;15.60;79.70
49132;DHT22;35149;51.196;6.204;2022-10-16T05:55:31;15.60;79.80
49132;DHT22;35149;51.196;6.204;2022-10-16T05:57:57;15.60;79.80
49132;DHT22;35149;51.196;6.204;2022-10-16T06:00:24;15.50;79.80
49132;DHT22;35149;51.196;6.204;2022-10-16T06:02:51;15.50;79.90
49132;DHT22;35149;51.196;6.204;2022-10-16T06:05:17;15.50;80.00
49132;DHT22;35149;51.196;6.204;2022-10-16T06:07:49;15.50;80.00
49132;DHT22;35149;51.196;6.204;2022-10-16T06:10:18;15.50;80.00
49132;DHT22;35149;51.196;6.204;2022-10-16T06:12:44;15.50;80.10
49132;DHT22;35149;51.196;6.204;2022-10-16T06:15:11;15.50;80.20
49132;DHT22;35149;51.196;6.204;2022-10-16T06:17:37;15.60;80.30
49132;DHT22;35149;51.196;6.204;2022-10-16T06:20:04;15.60;80.30
49132;DHT22;35149;51.196;6.204;2022-10-16T06:22:31;15.60;80.30
49132;DHT22;35149;51.196;6.204;2022-10-16T06:24:58;15.60;80.30
49132;DHT22;35149;51.196;6.204;2022-10-16T06:27:24;15.60;80.20
49132;DHT22;35149;51.196;6.204;2022-10-16T06:29:52;15.60;80.10
49132;DHT22;35149;51.196;6.204;2022-10-16T06:32:23;15.60;80.00
49132;DHT22;35149;51.196;6.204;2022-10-16T06:34:50;15.60;80.00
49132;DHT22;35149;51.196;6.204;2022-10-16T06:37:16;15.60;79.90
49132;DHT22;35149;51.196;6.204;2022-10-16T06:39:43;15.60;79.90
49132;DHT22;35149;51.196;6.204;2022-10-16T06:42:10;15.60;79.80
49132;DHT22;35149;51.196;6.204;2022-10-16T06:44:36;15.60;79.80
49132;DHT22;35149;51.196;6.204;2022-10-16T06:47:03;15.60;79.80
49132;DHT22;35149;51.196;6.204;2022-10-16T06:49:30;15.60;79.80
49132;DHT22;35149;51.196;6.204;2022-10-16T06:51:56;15.60;79.80
49132;DHT22;35149;51.196;6.204;2022-10-16T06:54:23;15.60;79.80
49132;DHT22;35149;51.196;6.204;2022-10-16T06:56:51;15.50;79.80
49132;DHT22;35149;51.196;6.204;2022-10-16T06:59:17;15.50;79.80
49132;DHT22;35149;51.196;6.204;2022-10-16T07:01:44;15.50;79.80
49132;DHT22;35149;51.196;6.204;2022-10-16T07:04:11;15.50;79.90
49132;DHT22;35149;51.196;6.204;2022-10-16T07:06:37;15.50;79.90
49132;DHT22;35149;51.196;6.204;2022-10-16T07:09:06;15.50;80.00
49132;DHT22;35149;51.196;6.204;2022-10-16T07:11:37;15.50;80.00
49132;DHT22;35149;51.196;6.204;2022-10-16T07:14:04;15.50;80.10
49132;DHT22;35149;51.196;6.204;2022-10-16T07:16:32;15.50;80.10
49132;DHT22;35149;51.196;6.204;2022-10-16T07:19:02;15.50;80.20
49132;DHT22;35149;51.196;6.204;2022-10-16T07:21:31;15.50;80.20
49132;DHT22;35149;51.196;6.204;2022-10-16T07:24:02;15.50;80.20
49132;DHT22;35149;51.196;6.204;2022-10-16T07:26:30;15.50;80.20
49132;DHT22;35149;51.196;6.204;2022-10-16T07:28:57;15.50;80.40
49132;DHT22;35149;51.196;6.204;2022-10-16T07:31:25;15.60;80.50
49132;DHT22;35149;51.196;6.204;2022-10-16T07:33:51;15.60;80.60
49132;DHT22;35149;51.196;6.204;2022-10-16T07:36:19;15.60;80.80
49132;DHT22;35149;51.196;6.204;2022-10-16T07:38:47;15.60;80.90
49132;DHT22;35149;51.196;6.204;2022-10-16T07:41:16;15.70;81.00
49132;DHT22;35149;51.196;6.204;2022-10-16T07:43:47;15.70;81.00
49132;DHT22;35149;51.196;6.204;2022-10-16T07:46:14;15.80;81.20
49132;DHT22;35149;51.196;6.204;2022-10-16T07:48:41;15.80;81.00
49132;DHT22;35149;51.196;6.204;2022-10-16T07:51:13;15.80;81.00
49132;DHT22;35149;51.196;6.204;2022-10-16T07:53:40;15.90;81.10
49132;DHT22;35149;51.196;6.204;2022-10-16T07:56:07;15.90;81.00
49132;DHT22;35149;51.196;6.204;2022-10-16T07:58:35;16.00;81.00
49132;DHT22;35149;51.196;6.204;2022-10-16T08:01:07;16.00;81.60
49132;DHT22;35149;51.196;6.204;2022-10-16T08:03:34;16.00;80.90
49132;DHT22;35149;51.196;6.204;2022-10-16T08:06:02;16.10;80.90
49132;DHT22;35149;51.196;6.204;2022-10-16T08:08:29;16.20;80.80
49132;DHT22;35149;51.196;6.204;2022-10-16T08:10:56;16.20;80.90
49132;DHT22;35149;51.196;6.204;2022-10-16T08:13:25;16.30;80.90
49132;DHT22;35149;51.196;6.204;2022-10-16T08:15:54;16.30;80.80
49132;DHT22;35149;51.196;6.204;2022-10-16T08:18:21;16.40;80.70
49132;DHT22;35149;51.196;6.204;2022-10-16T08:20:54;16.40;80.60
49132;DHT22;35149;51.196;6.204;2022-10-16T08:23:21;16.50;80.60
49132;DHT22;35149;51.196;6.204;2022-10-16T08:25:47;16.60;80.50
49132;DHT22;35149;51.196;6.204;2022-10-16T08:28:14;16.60;80.40
49132;DHT22;35149;51.196;6.204;2022-10-16T08:30:42;16.70;80.10
49132;DHT22;35149;51.196;6.204;2022-10-16T08:33:08;16.80;79.90
49132;DHT22;35149;51.196;6.204;2022-10-16T08:35:35;16.80;79.70
49132;DHT22;35149;51.196;6.204;2022-10-16T08:38:05;16.90;79.60
49132;DHT22;35149;51.196;6.204;2022-10-16T08:40:34;17.00;79.30
49132;DHT22;35149;51.196;6.204;2022-10-16T08:48:49;17.20;78.60
49132;DHT22;35149;51.196;6.204;2022-10-16T08:51:35;17.30;78.20
49132;DHT22;35149;51.196;6.204;2022-10-16T08:54:31;17.30;78.20
49132;DHT22;35149;51.196;6.204;2022-10-16T08:57:16;17.40;77.50
49132;DHT22;35149;51.196;6.204;2022-10-16T08:59:50;17.40;77.20
49132;DHT22;35149;51.196;6.204;2022-10-16T09:02:34;17.50;77.30
49132;DHT22;35149;51.196;6.204;2022-10-16T09:07:53;17.60;76.20
49132;DHT22;35149;51.196;6.204;2022-10-16T09:10:34;17.60;76.10
49132;DHT22;35149;51.196;6.204;2022-10-16T09:13:15;17.70;76.40
49132;DHT22;35149;51.196;6.204;2022-10-16T09:21:29;17.80;75.50
49132;DHT22;35149;51.196;6.204;2022-10-16T09:24:12;17.90;74.70
49132;DHT22;35149;51.196;6.204;2022-10-16T09:26:39;17.90;74.70
49132;DHT22;35149;51.196;6.204;2022-10-16T09:29:06;18.00;74.80
49132;DHT22;35149;51.196;6.204;2022-10-16T09:31:36;18.00;74.40
49132;DHT22;35149;51.196;6.204;2022-10-16T09:34:03;18.10;74.30
49132;DHT22;35149;51.196;6.204;2022-10-16T09:36:40;18.10;74.20
49132;DHT22;35149;51.196;6.204;2022-10-16T09:39:11;18.20;73.60
49132;DHT22;35149;51.196;6.204;2022-10-16T09:41:43;18.20;73.60
49132;DHT22;35149;51.196;6.204;2022-10-16T09:47:11;18.20;72.50
49132;DHT22;35149;51.196;6.204;2022-10-16T09:49:39;18.30;72.80
49132;DHT22;35149;51.196;6.204;2022-10-16T09:52:16;18.30;73.10
49132;DHT22;35149;51.196;6.204;2022-10-16T09:54:59;18.30;72.80
49132;DHT22;35149;51.196;6.204;2022-10-16T09:57:26;18.40;71.90
49132;DHT22;35149;51.196;6.204;2022-10-16T09:59:55;18.40;72.40
49132;DHT22;35149;51.196;6.204;2022-10-16T10:02:43;18.40;72.60
49132;DHT22;35149;51.196;6.204;2022-10-16T10:07:45;18.50;72.20
49132;DHT22;35149;51.196;6.204;2022-10-16T10:10:30;18.50;72.30
49132;DHT22;35149;51.196;6.204;2022-10-16T10:12:57;18.60;71.50
49132;DHT22;35149;51.196;6.204;2022-10-16T10:15:24;18.60;72.00
49132;DHT22;35149;51.196;6.204;2022-10-16T10:17:57;18.70;71.70
49132;DHT22;35149;51.196;6.204;2022-10-16T10:22:57;18.80;71.60
49132;DHT22;35149;51.196;6.204;2022-10-16T10:33:38;19.00;70.10
49132;DHT22;35149;51.196;6.204;2022-10-16T10:36:28;19.10;71.00
49132;DHT22;35149;51.196;6.204;2022-10-16T10:39:04;19.20;69.90
49132;DHT22;35149;51.196;6.204;2022-10-16T10:41:51;19.20;69.20
49132;DHT22;35149;51.196;6.204;2022-10-16T10:50:31;19.30;68.40
49132;DHT22;35149;51.196;6.204;2022-10-16T10:53:21;19.30;67.70
49132;DHT22;35149;51.196;6.204;2022-10-16T11:01:45;19.40;67.20
49132;DHT22;35149;51.196;6.204;2022-10-16T11:04:46;19.40;67.20
49132;DHT22;35149;51.196;6.204;2022-10-16T11:09:48;19.40;67.80
49132;DHT22;35149;51.196;6.204;2022-10-16T11:12:24;19.40;67.50
49132;DHT22;35149;51.196;6.204;2022-10-16T11:15:07;19.40;67.50
49132;DHT22;35149;51.196;6.204;2022-10-16T11:18:15;19.50;67.60
49132;DHT22;35149;51.196;6.204;2022-10-16T11:20:51;19.50;66.40
49132;DHT22;35149;51.196;6.204;2022-10-16T11:23:28;19.50;66.70
49132;DHT22;35149;51.196;6.204;2022-10-16T11:25:59;19.50;67.20
49132;DHT22;35149;51.196;6.204;2022-10-16T11:28:32;19.50;67.20
49132;DHT22;35149;51.196;6.204;2022-10-16T11:34:10;19.60;65.70
49132;DHT22;35149;51.196;6.204;2022-10-16T11:39:45;19.60;66.40
49132;DHT22;35149;51.196;6.204;2022-10-16T11:42:27;19.60;66.70
49132;DHT22;35149;51.196;6.204;2022-10-16T11:45:22;19.60;66.80
49132;DHT22;35149;51.196;6.204;2022-10-16T11:48:27;19.70;66.20
49132;DHT22;35149;51.196;6.204;2022-10-16T11:51:14;19.80;65.20
49132;DHT22;35149;51.196;6.204;2022-10-16T11:53:56;19.90;65.40
49132;DHT22;35149;51.196;6.204;2022-10-16T11:56:25;20.00;65.00
49132;DHT22;35149;51.196;6.204;2022-10-16T12:01:47;20.20;64.50
49132;DHT22;35149;51.196;6.204;2022-10-16T12:04:41;20.30;65.10
49132;DHT22;35149;51.196;6.204;2022-10-16T12:07:19;20.50;63.70
49132;DHT22;35149;51.196;6.204;2022-10-16T12:09:47;20.70;64.40
49132;DHT22;35149;51.196;6.204;2022-10-16T12:12:37;20.80;64.90
49132;DHT22;35149;51.196;6.204;2022-10-16T12:18:03;21.20;63.00
49132;DHT22;35149;51.196;6.204;2022-10-16T12:20:32;21.30;63.00
49132;DHT22;35149;51.196;6.204;2022-10-16T12:23:16;21.40;62.40
49132;DHT22;35149;51.196;6.204;2022-10-16T12:25:54;21.50;61.60
49132;DHT22;35149;51.196;6.204;2022-10-16T12:28:27;21.60;61.50
49132;DHT22;35149;51.196;6.204;2022-10-16T12:30:58;21.70;61.10
49132;DHT22;35149;51.196;6.204;2022-10-16T12:33:30;21.70;61.80
49132;DHT22;35149;51.196;6.204;2022-10-16T12:36:03;21.80;62.60
49132;DHT22;35149;51.196;6.204;2022-10-16T12:38:46;21.90;61.20
49132;DHT22;35149;51.196;6.204;2022-10-16T12:41:25;21.90;59.90
49132;DHT22;35149;51.196;6.204;2022-10-16T12:43:53;22.00;59.90
49132;DHT22;35149;51.196;6.204;2022-10-16T12:49:06;22.00;60.20
49132;DHT22;35149;51.196;6.204;2022-10-16T12:51:36;22.10;59.60
49132;DHT22;35149;51.196;6.204;2022-10-16T12:54:28;22.10;60.00
49132;DHT22;35149;51.196;6.204;2022-10-16T12:59:47;22.10;59.10
49132;DHT22;35149;51.196;6.204;2022-10-16T13:05:21;22.10;58.70
49132;DHT22;35149;51.196;6.204;2022-10-16T13:10:55;22.10;59.80
49132;DHT22;35149;51.196;6.204;2022-10-16T13:16:30;22.30;58.00
49132;DHT22;35149;51.196;6.204;2022-10-16T13:25:08;22.60;57.00
49132;DHT22;35149;51.196;6.204;2022-10-16T13:27:52;22.60;57.50
49132;DHT22;35149;51.196;6.204;2022-10-16T13:30:25;22.70;57.30
49132;DHT22;35149;51.196;6.204;2022-10-16T13:33:10;22.80;58.00
49132;DHT22;35149;51.196;6.204;2022-10-16T13:35:48;22.90;57.80
49132;DHT22;35149;51.196;6.204;2022-10-16T13:38:19;23.00;57.20
49132;DHT22;35149;51.196;6.204;2022-10-16T13:40:56;23.10;56.60
49132;DHT22;35149;51.196;6.204;2022-10-16T13:43:31;23.20;55.90
49132;DHT22;35149;51.196;6.204;2022-10-16T13:46:12;23.40;55.40
49132;DHT22;35149;51.196;6.204;2022-10-16T13:48:39;23.40;56.10
49132;DHT22;35149;51.196;6.204;2022-10-16T13:51:18;23.50;55.70
49132;DHT22;35149;51.196;6.204;2022-10-16T13:53:45;23.50;54.60
49132;DHT22;35149;51.196;6.204;2022-10-16T13:56:18;23.40;55.70
49132;DHT22;35149;51.196;6.204;2022-10-16T13:58:45;23.40;55.60
49132;DHT22;35149;51.196;6.204;2022-10-16T14:01:24;23.30;56.50
49132;DHT22;35149;51.196;6.204;2022-10-16T14:04:09;23.20;56.00
49132;DHT22;35149;51.196;6.204;2022-10-16T14:06:36;23.20;56.20
49132;DHT22;35149;51.196;6.204;2022-10-16T14:09:22;23.10;56.40
49132;DHT22;35149;51.196;6.204;2022-10-16T14:11:58;23.10;56.90
49132;DHT22;35149;51.196;6.204;2022-10-16T14:14:39;23.00;56.80
49132;DHT22;35149;51.196;6.204;2022-10-16T14:17:25;22.90;56.70
49132;DHT22;35149;51.196;6.204;2022-10-16T14:19:54;22.90;56.50
49132;DHT22;35149;51.196;6.204;2022-10-16T14:22:36;22.80;57.60
49132;DHT22;35149;51.196;6.204;2022-10-16T14:27:56;22.70;57.70
49132;DHT22;35149;51.196;6.204;2022-10-16T14:30:34;22.60;57.80
49132;DHT22;35149;51.196;6.204;2022-10-16T14:33:04;22.50;58.80
49132;DHT22;35149;51.196;6.204;2022-10-16T14:35:37;22.50;59.10
49132;DHT22;35149;51.196;6.204;2022-10-16T14:38:14;22.40;57.90
49132;DHT22;35149;51.196;6.204;2022-10-16T14:40:47;22.30;57.80
49132;DHT22;35149;51.196;6.204;2022-10-16T14:43:32;22.30;58.80
49132;DHT22;35149;51.196;6.204;2022-10-16T14:46:01;22.20;59.10
49132;DHT22;35149;51.196;6.204;2022-10-16T14:48:29;22.10;59.50
49132;DHT22;35149;51.196;6.204;2022-10-16T14:50:56;22.00;60.20
49132;DHT22;35149;51.196;6.204;2022-10-16T14:53:22;21.90;60.90
49132;DHT22;35149;51.196;6.204;2022-10-16T14:55:49;21.80;61.10
49132;DHT22;35149;51.196;6.204;2022-10-16T14:58:18;21.80;61.50
49132;DHT22;35149;51.196;6.204;2022-10-16T15:00:46;21.70;62.00
49132;DHT22;35149;51.196;6.204;2022-10-16T15:03:13;21.60;62.50
49132;DHT22;35149;51.196;6.204;2022-10-16T15:05:39;21.60;62.80
49132;DHT22;35149;51.196;6.204;2022-10-16T15:08:06;21.50;63.20
49132;DHT22;35149;51.196;6.204;2022-10-16T15:10:40;21.40;63.70
49132;DHT22;35149;51.196;6.204;2022-10-16T15:13:11;21.40;64.40
49132;DHT22;35149;51.196;6.204;2022-10-16T15:15:42;21.40;64.80
49132;DHT22;35149;51.196;6.204;2022-10-16T15:18:09;21.30;65.30
49132;DHT22;35149;51.196;6.204;2022-10-16T15:20:38;21.30;65.60
49132;DHT22;35149;51.196;6.204;2022-10-16T15:23:13;21.20;66.10
49132;DHT22;35149;51.196;6.204;2022-10-16T15:25:47;21.20;66.10
49132;DHT22;35149;51.196;6.204;2022-10-16T15:28:15;21.10;66.30
49132;DHT22;35149;51.196;6.204;2022-10-16T15:30:42;21.10;66.70
49132;DHT22;35149;51.196;6.204;2022-10-16T15:33:16;21.10;67.00
49132;DHT22;35149;51.196;6.204;2022-10-16T15:35:45;21.00;67.10
49132;DHT22;35149;51.196;6.204;2022-10-16T15:38:13;21.00;66.80
49132;DHT22;35149;51.196;6.204;2022-10-16T15:40:41;21.00;67.00
49132;DHT22;35149;51.196;6.204;2022-10-16T15:43:09;20.90;67.30
49132;DHT22;35149;51.196;6.204;2022-10-16T15:45:37;20.90;67.60
49132;DHT22;35149;51.196;6.204;2022-10-16T15:48:04;20.80;67.80
49132;DHT22;35149;51.196;6.204;2022-10-16T15:50:31;20.80;67.90
49132;DHT22;35149;51.196;6.204;2022-10-16T15:52:58;20.70;68.10
49132;DHT22;35149;51.196;6.204;2022-10-16T15:55:25;20.70;68.30
49132;DHT22;35149;51.196;6.204;2022-10-16T15:57:52;20.70;68.50
49132;DHT22;35149;51.196;6.204;2022-10-16T16:00:20;20.60;68.50
49132;DHT22;35149;51.196;6.204;2022-10-16T16:02:52;20.60;68.80
49132;DHT22;35149;51.196;6.204;2022-10-16T16:05:20;20.50;68.80
49132;DHT22;35149;51.196;6.204;2022-10-16T16:07:50;20.40;68.80
49132;DHT22;35149;51.196;6.204;2022-10-16T16:10:18;20.40;68.80
49132;DHT22;35149;51.196;6.204;2022-10-16T16:12:48;20.30;68.90
49132;DHT22;35149;51.196;6.204;2022-10-16T16:15:19;20.30;68.90
49132;DHT22;35149;51.196;6.204;2022-10-16T16:17:48;20.30;68.80
49132;DHT22;35149;51.196;6.204;2022-10-16T16:20:15;20.20;68.70
49132;DHT22;35149;51.196;6.204;2022-10-16T16:22:43;20.10;68.90
49132;DHT22;35149;51.196;6.204;2022-10-16T16:25:12;20.10;69.00
49132;DHT22;35149;51.196;6.204;2022-10-16T16:27:39;20.00;69.10
49132;DHT22;35149;51.196;6.204;2022-10-16T16:30:07;19.90;69.20
49132;DHT22;35149;51.196;6.204;2022-10-16T16:32:34;19.80;69.40
49132;DHT22;35149;51.196;6.204;2022-10-16T16:35:02;19.80;69.40
49132;DHT22;35149;51.196;6.204;2022-10-16T16:37:29;19.70;69.60
49132;DHT22;35149;51.196;6.204;2022-10-16T16:39:56;19.60;69.70
49132;DHT22;35149;51.196;6.204;2022-10-16T16:42:26;19.60;69.90
49132;DHT22;35149;51.196;6.204;2022-10-16T16:44:56;19.50;70.00
49132;DHT22;35149;51.196;6.204;2022-10-16T16:47:23;19.40;70.00
49132;DHT22;35149;51.196;6.204;2022-10-16T16:49:50;19.40;70.20
49132;DHT22;35149;51.196;6.204;2022-10-16T16:52:18;19.30;70.30
49132;DHT22;35149;51.196;6.204;2022-10-16T16:54:44;19.30;70.50
49132;DHT22;35149;51.196;6.204;2022-10-16T16:57:19;19.20;70.60
49132;DHT22;35149;51.196;6.204;2022-10-16T16:59:56;19.20;70.70
49132;DHT22;35149;51.196;6.204;2022-10-16T17:02:23;19.10;70.70
49132;DHT22;35149;51.196;6.204;2022-10-16T17:04:52;19.10;70.80
49132;DHT22;35149;51.196;6.204;2022-10-16T17:07:23;19.00;70.90
49132;DHT22;35149;51.196;6.204;2022-10-16T17:09:54;19.00;71.00
49132;DHT22;35149;51.196;6.204;2022-10-16T17:12:24;18.90;71.10
49132;DHT22;35149;51.196;6.204;2022-10-16T17:14:50;18.90;71.20
49132;DHT22;35149;51.196;6.204;2022-10-16T17:17:17;18.90;71.30
49132;DHT22;35149;51.196;6.204;2022-10-16T17:19:44;18.80;71.30
49132;DHT22;35149;51.196;6.204;2022-10-16T17:22:10;18.80;71.40
49132;DHT22;35149;51.196;6.204;2022-10-16T17:24:38;18.70;71.50
49132;DHT22;35149;51.196;6.204;2022-10-16T17:27:04;18.70;71.60
49132;DHT22;35149;51.196;6.204;2022-10-16T17:29:33;18.70;71.70
49132;DHT22;35149;51.196;6.204;2022-10-16T17:32:00;18.70;71.90
49132;DHT22;35149;51.196;6.204;2022-10-16T17:34:28;18.60;71.80